Report METAR

 

LIPB - Bolzano(Civ/It-A, Italy
Distance from station: NNE 37km
Dati ricevuti: 18/01/2022 13:50
Sereno
Sereno
 Vento da Variabile
Vento: Variabile 4 km/h
Temperatura: 12°C
P.to Rugiada: -6°C
Umidità: 28%
Barometro: 1032 hPa
Summary: Sereno
Visibility: superiore a 10 km
2022/01/18 12:50 LIPB 181250Z VRB02KT CAVOK 12/M06 Q1032
LIVR - Rolle Pass, Italy
Distance from station: ENE 46km
Dati ricevuti: 18/01/2022 13:55
Sereno
Sereno
 Vento da N
Vento: N 7 km/h
Temperatura: -2°C
Temperatura Vento: -6°C
P.to Rugiada: -10°C
Umidità: 55%
Barometro: 1031 hPa
Summary: Sereno
Visibility: superiore a 10 km
2022/01/18 12:55 LIVR 181255Z 35004KT CAVOK M02/M10 Q1031 RMK SKC MON LIB VIS MIN 9999
 
LIPS - Istrana (it-Afb), Italy
Distance from station: SE 86km
Dati ricevuti: 18/01/2022 13:55
Sereno
Sereno
 Vento da S
Vento: S 11 km/h
Temperatura: 12°C
P.to Rugiada: 1°C
Umidità: 47%
Barometro: 1032 hPa
Summary: Sereno
Visibility: superiore a 10 km
2022/01/18 12:55 LIPS 181255Z 18006KT CAVOK 12/01 Q1032 RMK SKC VIS MIN 9999 WIND THR26 14004KT WIND THR08 16004KT BLU
LIPX - Villafranca(Cv/M, Italy
Distance from station: SSO 88km
Dati ricevuti: 18/01/2022 13:50
Sereno
Sereno
 Vento da ESE
Vento: ESE 13 km/h
Temperatura: 12°C
P.to Rugiada: 3°C
Umidità: 54%
Barometro: 1032 hPa
Nuvole: Sereno
Visibility: 10 km
2022/01/18 12:50 LIPX 181250Z AUTO 11007KT 080V150 9999 NCD 12/03 Q1032
 
LIPH - Treviso(Civ/It-A, Italy
Distance from station: SE 94km
Dati ricevuti: 18/01/2022 13:50
Sereno
Sereno
 Vento da Variabile
Vento: Variabile 4 km/h
Temperatura: 13°C
P.to Rugiada: 2°C
Umidità: 47%
Barometro: 1033 hPa
Summary: Sereno
Visibility: superiore a 10 km
2022/01/18 12:50 LIPH 181250Z VRB02KT CAVOK 13/02 Q1033
LIVE - Resia Pass, Italy
Distance from station: NO 95km
Dati ricevuti: 18/01/2022 13:55
Sereno
Sereno
 Vento da N
Vento: N 15 km/h, Raffica: 33 km/h
Temperatura: 3°C
Temperatura Vento: -1°C
P.to Rugiada: -5°C
Umidità: 56%
Barometro: 1030 hPa
Summary: Sereno
Visibility: superiore a 10 km
2022/01/18 12:55 LIVE 181255Z 01008G18KT CAVOK 03/M05 Q1030 RMK SKC VIS MIN 9999
 
LIPU - Padova (civ/It-A, Italy
Distance from station: SSE 98km
Dati ricevuti: 18/01/2022 08:00
DATI Obsoleti
Mist, Parz. nuvoloso
Mist, Parz. nuvoloso
 Vento da calmo
Vento: Calma
Temperatura: 0°C
P.to Rugiada: 0°C
Umidità: 100%
Barometro: 1031 hPa
Summary: Mist
Nuvole: Parz. nuvoloso
Visibility: 2 km
2022/01/18 07:00 LIPU 180700Z 00000KT 2000 BR NSC 00/00 Q1031